createdAt,value
2022-10-18T00:02:03.844Z,17.62
2022-10-18T00:04:30.304Z,17.60
2022-10-18T00:06:56.653Z,17.52
2022-10-18T00:09:23.058Z,17.61
2022-10-18T00:11:49.508Z,17.66
2022-10-18T00:14:15.926Z,17.60
2022-10-18T00:16:42.235Z,17.46
2022-10-18T00:19:08.557Z,17.52
2022-10-18T00:21:35.094Z,17.52
2022-10-18T00:24:01.550Z,17.01
2022-10-18T00:26:29.809Z,16.63
2022-10-18T00:28:59.269Z,16.87
2022-10-18T00:31:28.175Z,17.04
2022-10-18T00:33:56.965Z,17.08
2022-10-18T00:36:24.538Z,17.20
2022-10-18T00:38:51.211Z,17.25
2022-10-18T00:41:23.645Z,17.29
2022-10-18T00:44:00.441Z,17.23
2022-10-18T00:46:33.017Z,17.30
2022-10-18T00:49:02.409Z,17.23
2022-10-18T00:51:48.474Z,17.25
2022-10-18T00:54:17.052Z,17.21
2022-10-18T00:56:44.810Z,17.23
2022-10-18T00:59:13.778Z,17.25
2022-10-18T01:01:40.234Z,17.27
2022-10-18T01:04:06.823Z,17.34
2022-10-18T01:06:41.765Z,17.33
2022-10-18T01:09:32.554Z,17.36
2022-10-18T01:12:13.854Z,17.35
2022-10-18T01:14:49.924Z,17.32
2022-10-18T01:17:29.347Z,17.27
2022-10-18T01:20:09.863Z,17.28
2022-10-18T01:22:47.889Z,17.08
2022-10-18T01:25:32.520Z,17.05
2022-10-18T01:28:34.489Z,17.04
2022-10-18T01:31:05.629Z,17.05
2022-10-18T01:33:43.581Z,17.20
2022-10-18T01:36:19.139Z,17.22
2022-10-18T01:38:49.740Z,17.27
2022-10-18T01:41:19.173Z,17.24
2022-10-18T01:43:47.949Z,17.25
2022-10-18T01:46:18.753Z,17.25
2022-10-18T01:48:45.913Z,17.24
2022-10-18T01:51:12.245Z,17.23
2022-10-18T01:53:38.617Z,17.17
2022-10-18T01:56:23.333Z,17.21
2022-10-18T01:59:11.043Z,17.22
2022-10-18T02:01:42.286Z,17.13
2022-10-18T02:04:32.573Z,17.13
2022-10-18T02:07:08.197Z,17.14
2022-10-18T02:09:46.145Z,17.22
2022-10-18T02:12:14.787Z,17.13
2022-10-18T02:14:43.413Z,17.26
2022-10-18T02:17:12.428Z,17.38
2022-10-18T02:19:43.847Z,17.40
2022-10-18T02:22:12.695Z,17.33
2022-10-18T02:24:44.140Z,17.22
2022-10-18T02:27:10.823Z,16.98
2022-10-18T02:29:38.749Z,16.97
2022-10-18T02:32:07.767Z,17.11
2022-10-18T02:34:40.486Z,17.04
2022-10-18T02:37:10.687Z,16.93
2022-10-18T02:39:48.631Z,16.95
2022-10-18T02:42:15.744Z,17.06
2022-10-18T02:44:42.195Z,17.02
2022-10-18T02:47:12.072Z,17.07
2022-10-18T02:49:38.417Z,17.05
2022-10-18T02:52:04.772Z,17.06
2022-10-18T02:54:31.214Z,17.07
2022-10-18T02:56:57.528Z,17.11
2022-10-18T02:59:23.881Z,17.07
2022-10-18T03:01:50.258Z,17.08
2022-10-18T03:04:16.689Z,16.92
2022-10-18T03:06:43.053Z,16.89
2022-10-18T03:09:09.688Z,17.00
2022-10-18T03:11:35.987Z,16.94
2022-10-18T03:14:02.320Z,17.01
2022-10-18T03:16:28.738Z,16.92
2022-10-18T03:18:55.042Z,16.86
2022-10-18T03:21:21.554Z,16.82
2022-10-18T03:23:47.867Z,16.84
2022-10-18T03:26:14.265Z,16.86
2022-10-18T03:28:40.893Z,16.89
2022-10-18T03:31:07.259Z,16.87
2022-10-18T03:33:33.853Z,16.86
2022-10-18T03:36:02.483Z,16.86
2022-10-18T03:38:29.026Z,16.87
2022-10-18T03:40:55.412Z,17.00
2022-10-18T03:43:22.667Z,16.98
2022-10-18T03:45:48.992Z,16.85
2022-10-18T03:48:15.383Z,16.83
2022-10-18T03:50:42.788Z,16.71
2022-10-18T03:53:09.324Z,16.70
2022-10-18T03:55:36.755Z,16.78
2022-10-18T03:58:03.339Z,16.74
2022-10-18T04:00:29.863Z,16.72
2022-10-18T04:02:56.279Z,16.71
2022-10-18T04:05:28.302Z,16.61
2022-10-18T04:07:54.881Z,16.61
2022-10-18T04:10:21.253Z,16.67
2022-10-18T04:12:47.764Z,16.66
2022-10-18T04:15:14.118Z,16.70
2022-10-18T04:17:40.466Z,16.68
2022-10-18T04:20:07.388Z,16.69
2022-10-18T04:22:33.699Z,16.64
2022-10-18T04:25:00.048Z,16.58
2022-10-18T04:27:26.418Z,16.48
2022-10-18T04:29:52.783Z,16.47
2022-10-18T04:32:19.089Z,16.41
2022-10-18T04:34:45.401Z,16.44
2022-10-18T04:37:11.750Z,16.44
2022-10-18T04:39:38.128Z,16.47
2022-10-18T04:42:04.864Z,16.42
2022-10-18T04:44:31.187Z,16.43
2022-10-18T04:46:57.499Z,16.36
2022-10-18T04:49:24.014Z,16.40
2022-10-18T04:51:50.523Z,16.37
2022-10-18T04:54:17.163Z,16.40
2022-10-18T04:56:43.475Z,16.40
2022-10-18T04:59:09.820Z,16.33
2022-10-18T05:01:36.370Z,16.41
2022-10-18T05:04:02.709Z,16.44
2022-10-18T05:06:29.179Z,16.22
2022-10-18T05:08:55.526Z,16.31
2022-10-18T05:11:21.931Z,16.43
2022-10-18T05:13:50.184Z,16.46
2022-10-18T05:16:17.364Z,16.42
2022-10-18T05:18:43.675Z,16.30
2022-10-18T05:21:10.161Z,16.32
2022-10-18T05:23:36.479Z,16.21
2022-10-18T05:26:04.878Z,16.16
2022-10-18T05:28:39.760Z,16.19
2022-10-18T05:31:10.489Z,16.24
2022-10-18T05:33:36.807Z,16.22
2022-10-18T05:36:04.225Z,16.19
2022-10-18T05:38:30.937Z,16.27
2022-10-18T05:40:58.723Z,16.11
2022-10-18T05:43:28.858Z,15.79
2022-10-18T05:45:55.623Z,15.85
2022-10-18T05:48:22.076Z,15.98
2022-10-18T05:50:48.429Z,16.10
2022-10-18T05:53:35.113Z,16.16
2022-10-18T05:56:02.344Z,16.12
2022-10-18T05:58:28.664Z,16.17
2022-10-18T06:00:57.862Z,16.14
2022-10-18T06:03:24.171Z,16.15
2022-10-18T06:05:50.494Z,16.19
2022-10-18T06:08:16.806Z,16.14
2022-10-18T06:10:43.127Z,16.17
2022-10-18T06:13:09.449Z,16.03
2022-10-18T06:15:35.747Z,16.11
2022-10-18T06:18:02.068Z,16.05
2022-10-18T06:20:28.377Z,16.07
2022-10-18T06:22:54.738Z,16.10
2022-10-18T06:25:21.049Z,16.13
2022-10-18T06:27:47.350Z,16.07
2022-10-18T06:30:13.805Z,16.06
2022-10-18T06:32:42.166Z,16.07
2022-10-18T06:35:09.095Z,16.05
2022-10-18T06:37:36.769Z,16.04
2022-10-18T06:40:03.347Z,16.01
2022-10-18T06:42:29.808Z,15.88
2022-10-18T06:44:56.265Z,15.94
2022-10-18T06:47:22.626Z,15.97
2022-10-18T06:49:48.970Z,16.11
2022-10-18T06:52:20.614Z,16.20
2022-10-18T06:54:47.131Z,16.23
2022-10-18T06:57:13.454Z,16.26
2022-10-18T06:59:39.770Z,16.38
2022-10-18T07:02:06.230Z,16.40
2022-10-18T07:04:32.743Z,16.41
2022-10-18T07:06:59.058Z,16.40
2022-10-18T07:09:25.368Z,16.36
2022-10-18T07:11:52.810Z,16.48
2022-10-18T07:14:19.320Z,16.41
2022-10-18T07:16:45.813Z,16.46
2022-10-18T07:19:12.157Z,16.57
2022-10-18T07:21:38.545Z,16.43
2022-10-18T07:24:05.046Z,16.70
2022-10-18T07:26:33.205Z,16.85
2022-10-18T07:29:07.434Z,16.72
2022-10-18T07:31:34.356Z,16.91
2022-10-18T07:34:00.812Z,17.02
2022-10-18T07:36:27.184Z,17.13
2022-10-18T07:38:53.595Z,17.26
2022-10-18T07:41:20.334Z,17.27
2022-10-18T07:43:48.813Z,17.32
2022-10-18T07:46:16.172Z,17.26
2022-10-18T07:48:43.244Z,17.34
2022-10-18T07:51:09.964Z,17.14
2022-10-18T07:53:36.879Z,17.37
2022-10-18T07:56:11.402Z,17.53
2022-10-18T07:58:37.750Z,17.70
2022-10-18T08:01:06.672Z,17.81
2022-10-18T08:03:34.239Z,17.92
2022-10-18T08:06:01.341Z,18.02
2022-10-18T08:08:28.736Z,18.13
2022-10-18T08:10:55.166Z,18.26
2022-10-18T08:13:22.238Z,18.36
2022-10-18T08:15:48.591Z,18.43
2022-10-18T08:18:15.021Z,18.52
2022-10-18T08:20:45.483Z,18.52
2022-10-18T08:23:12.020Z,18.51
2022-10-18T08:25:38.528Z,18.46
2022-10-18T08:28:05.141Z,18.67
2022-10-18T08:30:31.479Z,18.59
2022-10-18T08:32:57.792Z,18.53
2022-10-18T08:35:24.154Z,18.45
2022-10-18T08:37:51.140Z,18.32
2022-10-18T08:40:17.463Z,18.44
2022-10-18T08:43:08.334Z,18.32
2022-10-18T08:45:42.953Z,18.21
2022-10-18T08:48:43.629Z,18.52
2022-10-18T08:51:26.211Z,18.47
2022-10-18T08:54:13.579Z,18.70
2022-10-18T08:56:45.339Z,18.90
2022-10-18T08:59:12.869Z,19.13
2022-10-18T09:01:54.182Z,19.33
2022-10-18T09:04:27.098Z,19.50
2022-10-18T09:07:15.263Z,19.65
2022-10-18T09:10:00.011Z,19.92
2022-10-18T09:12:51.264Z,20.06
2022-10-18T09:15:38.945Z,20.20
2022-10-18T09:18:20.342Z,20.35
2022-10-18T09:20:55.155Z,20.49
2022-10-18T09:23:31.207Z,20.61
2022-10-18T09:26:15.663Z,19.99
2022-10-18T09:29:03.850Z,20.18
2022-10-18T09:32:04.487Z,20.34
2022-10-18T09:34:50.522Z,20.48
2022-10-18T09:37:19.555Z,20.68
2022-10-18T09:39:48.110Z,20.53
2022-10-18T09:42:26.565Z,20.57
2022-10-18T09:45:00.693Z,20.82
2022-10-18T09:47:37.194Z,20.90
2022-10-18T09:50:19.253Z,20.99
2022-10-18T09:52:58.450Z,21.12
2022-10-18T09:55:33.892Z,20.74
2022-10-18T09:58:05.090Z,20.52
2022-10-18T10:00:35.131Z,20.29
2022-10-18T10:03:02.193Z,20.34
2022-10-18T10:05:28.512Z,20.24
2022-10-18T10:07:59.808Z,20.18
2022-10-18T10:10:28.605Z,20.19
2022-10-18T10:13:03.966Z,20.26
2022-10-18T10:15:35.266Z,20.54
2022-10-18T10:18:18.968Z,20.72
2022-10-18T10:20:48.429Z,20.60
2022-10-18T10:23:25.938Z,20.70
2022-10-18T10:25:59.261Z,20.81
2022-10-18T10:28:33.135Z,20.93
2022-10-18T10:31:24.336Z,20.92
2022-10-18T10:34:14.147Z,20.91
2022-10-18T10:36:51.662Z,20.90
2022-10-18T10:39:20.242Z,20.87
2022-10-18T10:41:49.736Z,20.77
2022-10-18T10:44:18.936Z,20.93
2022-10-18T10:46:48.162Z,20.89
2022-10-18T10:52:27.719Z,21.16
2022-10-18T10:55:05.786Z,21.18
2022-10-18T10:57:45.928Z,21.16
2022-10-18T11:00:37.395Z,21.30
2022-10-18T11:03:28.441Z,21.29
2022-10-18T11:05:57.543Z,21.22
2022-10-18T11:08:31.817Z,21.36
2022-10-18T11:11:17.009Z,21.50
2022-10-18T11:14:13.773Z,21.50
2022-10-18T11:16:56.269Z,21.61
2022-10-18T11:19:37.619Z,21.58
2022-10-18T11:22:09.379Z,21.72
2022-10-18T11:24:37.058Z,21.88
2022-10-18T11:27:10.363Z,22.08
2022-10-18T11:29:49.353Z,22.26
2022-10-18T11:32:47.135Z,22.09
2022-10-18T11:35:40.331Z,22.13
2022-10-18T11:38:29.259Z,22.42
2022-10-18T11:40:55.704Z,22.38
2022-10-18T11:44:01.215Z,22.27
2022-10-18T11:46:52.763Z,22.53
2022-10-18T11:49:32.206Z,22.03
2022-10-18T11:52:24.448Z,22.71
2022-10-18T11:55:09.701Z,23.22
2022-10-18T11:58:02.274Z,22.95
2022-10-18T12:01:03.698Z,22.84
2022-10-18T12:03:44.902Z,23.00
2022-10-18T12:06:19.362Z,23.43
2022-10-18T12:08:50.509Z,23.16
2022-10-18T12:11:46.920Z,23.56
2022-10-18T12:14:30.347Z,23.31
2022-10-18T12:17:35.677Z,23.19
2022-10-18T12:19:51.757Z,23.47
2022-10-18T12:22:40.299Z,23.36
2022-10-18T12:25:13.634Z,23.64
2022-10-18T12:28:02.382Z,24.13
2022-10-18T12:30:47.074Z,23.85
2022-10-18T12:33:28.238Z,23.69
2022-10-18T12:36:41.508Z,24.20
2022-10-18T12:39:21.567Z,23.73
2022-10-18T12:41:57.010Z,23.90
2022-10-18T12:44:31.717Z,24.06
2022-10-18T12:47:00.902Z,24.31
2022-10-18T12:49:31.585Z,23.96
2022-10-18T12:52:01.586Z,24.17
2022-10-18T12:55:25.886Z,24.52
2022-10-18T12:57:52.339Z,24.47
2022-10-18T13:00:30.897Z,24.97
2022-10-18T13:03:09.834Z,24.60
2022-10-18T13:05:53.505Z,24.91
2022-10-18T13:08:27.115Z,25.50
2022-10-18T13:11:09.045Z,26.10
2022-10-18T13:14:06.037Z,25.22
2022-10-18T13:16:38.453Z,25.89
2022-10-18T13:19:21.573Z,26.12
2022-10-18T13:22:06.660Z,26.39
2022-10-18T13:24:38.989Z,26.81
2022-10-18T13:27:42.165Z,27.08
2022-10-18T13:30:11.572Z,27.20
2022-10-18T13:33:02.489Z,27.60
2022-10-18T13:35:52.573Z,27.75
2022-10-18T13:38:42.493Z,27.50
2022-10-18T13:41:13.297Z,27.88
2022-10-18T13:44:11.355Z,28.03
2022-10-18T13:47:01.788Z,28.29
2022-10-18T13:49:40.524Z,28.41
2022-10-18T13:52:25.727Z,28.60
2022-10-18T13:55:20.375Z,28.76
2022-10-18T13:58:49.057Z,28.28
2022-10-18T14:02:36.315Z,27.00
2022-10-18T14:05:38.343Z,26.89
2022-10-18T14:08:13.673Z,26.77
2022-10-18T14:11:01.902Z,27.11
2022-10-18T14:13:42.556Z,26.41
2022-10-18T14:16:29.494Z,26.20
2022-10-18T14:19:14.576Z,26.48
2022-10-18T14:21:48.555Z,26.72
2022-10-18T14:24:21.189Z,26.44
2022-10-18T14:26:47.672Z,26.09
2022-10-18T14:29:19.752Z,25.87
2022-10-18T14:31:54.150Z,25.49
2022-10-18T14:34:21.685Z,25.70
2022-10-18T14:36:49.452Z,25.86
2022-10-18T14:39:22.450Z,26.08
2022-10-18T14:41:51.448Z,25.87
2022-10-18T14:44:21.882Z,26.05
2022-10-18T14:47:22.714Z,25.96
2022-10-18T14:49:50.227Z,25.67
2022-10-18T14:52:21.957Z,25.73
2022-10-18T14:54:54.223Z,25.42
2022-10-18T14:57:35.371Z,25.29
2022-10-18T15:00:07.363Z,25.49
2022-10-18T15:02:37.223Z,25.36
2022-10-18T15:05:17.059Z,25.34
2022-10-18T15:07:44.114Z,25.26
2022-10-18T15:10:17.810Z,25.29
2022-10-18T15:13:08.220Z,25.63
2022-10-18T15:15:34.678Z,25.78
2022-10-18T15:18:01.862Z,26.03
2022-10-18T15:20:31.779Z,26.13
2022-10-18T15:23:33.076Z,25.67
2022-10-18T15:26:04.284Z,25.79
2022-10-18T15:28:39.314Z,25.51
2022-10-18T15:31:06.663Z,25.70
2022-10-18T15:33:34.762Z,25.78
2022-10-18T15:36:12.490Z,25.77
2022-10-18T15:38:39.071Z,25.73
2022-10-18T15:41:41.035Z,25.65
2022-10-18T15:44:19.165Z,25.29
2022-10-18T15:46:47.554Z,25.49
2022-10-18T15:49:44.715Z,25.66
2022-10-18T15:52:33.851Z,25.62
2022-10-18T15:55:27.768Z,25.84
2022-10-18T15:58:02.095Z,25.91
2022-10-18T16:00:28.404Z,25.76
2022-10-18T16:02:54.747Z,25.75
2022-10-18T16:05:21.168Z,25.55
2022-10-18T16:07:53.463Z,25.67
2022-10-18T16:10:20.155Z,25.68
2022-10-18T16:12:46.745Z,25.71
2022-10-18T16:15:13.153Z,25.66
2022-10-18T16:17:39.446Z,25.56
2022-10-18T16:20:06.428Z,25.54
2022-10-18T16:22:34.810Z,25.46
2022-10-18T16:25:03.764Z,25.21
2022-10-18T16:27:30.085Z,25.14
2022-10-18T16:29:56.562Z,25.36
2022-10-18T16:32:22.864Z,25.39
2022-10-18T16:34:49.170Z,25.48
2022-10-18T16:37:15.612Z,25.56
2022-10-18T16:39:41.971Z,25.52
2022-10-18T16:42:08.782Z,25.49
2022-10-18T16:44:35.297Z,25.43
2022-10-18T16:47:01.772Z,25.29
2022-10-18T16:49:28.374Z,25.24
2022-10-18T16:51:55.395Z,25.14
2022-10-18T16:54:23.371Z,25.16
2022-10-18T16:56:50.429Z,25.16
2022-10-18T16:59:29.078Z,25.09
2022-10-18T17:01:55.564Z,25.00
2022-10-18T17:04:22.097Z,24.92
2022-10-18T17:06:49.042Z,24.78
2022-10-18T17:09:15.978Z,24.71
2022-10-18T17:11:42.418Z,24.67
2022-10-18T17:14:08.824Z,24.64
2022-10-18T17:16:36.709Z,24.56
2022-10-18T17:19:07.094Z,24.52
2022-10-18T17:21:33.578Z,24.52
2022-10-18T17:24:03.077Z,24.46
2022-10-18T17:26:30.613Z,24.40
2022-10-18T17:29:00.198Z,24.28
2022-10-18T17:31:27.958Z,24.08
2022-10-18T17:33:55.175Z,24.04
2022-10-18T17:36:22.102Z,24.04
2022-10-18T17:38:53.093Z,23.83
2022-10-18T17:41:19.990Z,23.78
2022-10-18T17:43:47.863Z,23.80
2022-10-18T17:46:14.601Z,23.81
2022-10-18T17:48:41.960Z,23.69
2022-10-18T17:51:10.053Z,23.67
2022-10-18T17:53:36.536Z,23.66
2022-10-18T17:56:04.358Z,23.57
2022-10-18T17:58:31.867Z,23.42
2022-10-18T18:01:07.575Z,23.49
2022-10-18T18:03:34.045Z,23.46
2022-10-18T18:06:00.595Z,23.44
2022-10-18T18:08:27.143Z,23.40
2022-10-18T18:10:55.349Z,23.34
2022-10-18T18:13:21.678Z,23.22
2022-10-18T18:15:47.990Z,23.18
2022-10-18T18:18:14.326Z,23.14
2022-10-18T18:20:40.713Z,23.13
2022-10-18T18:23:07.043Z,23.01
2022-10-18T18:25:33.357Z,23.02
2022-10-18T18:28:03.838Z,23.01
2022-10-18T18:30:33.898Z,22.99
2022-10-18T18:33:00.299Z,22.96
2022-10-18T18:35:26.637Z,22.92
2022-10-18T18:37:53.096Z,22.80
2022-10-18T18:40:19.551Z,22.77
2022-10-18T18:42:56.788Z,22.80
2022-10-18T18:45:32.467Z,22.66
2022-10-18T18:47:58.815Z,22.55
2022-10-18T18:50:25.184Z,22.52
2022-10-18T18:52:51.555Z,22.46
2022-10-18T18:55:17.882Z,22.40
2022-10-18T18:57:44.200Z,22.38
2022-10-18T19:00:12.525Z,22.34
2022-10-18T19:02:38.925Z,22.24
2022-10-18T19:05:05.529Z,22.22
2022-10-18T19:07:32.254Z,22.20
2022-10-18T19:09:58.886Z,22.17
2022-10-18T19:12:25.260Z,21.90
2022-10-18T19:14:51.612Z,21.89
2022-10-18T19:17:17.934Z,21.86
2022-10-18T19:19:44.420Z,21.87
2022-10-18T19:22:11.028Z,21.86
2022-10-18T19:24:37.453Z,21.91
2022-10-18T19:27:09.586Z,21.79
2022-10-18T19:29:37.530Z,21.67
2022-10-18T19:32:06.992Z,21.64
2022-10-18T19:34:37.095Z,21.50
2022-10-18T19:37:04.271Z,21.47
2022-10-18T19:39:35.377Z,21.35
2022-10-18T19:42:07.176Z,21.40
2022-10-18T19:44:36.088Z,21.42
2022-10-18T19:47:04.741Z,21.30
2022-10-18T19:49:31.276Z,21.30
2022-10-18T19:51:58.170Z,21.30
2022-10-18T19:54:24.867Z,21.21
2022-10-18T19:56:51.407Z,21.09
2022-10-18T19:59:17.942Z,21.15
2022-10-18T20:01:45.168Z,21.14
2022-10-18T20:04:13.318Z,21.06
2022-10-18T20:06:40.573Z,20.93
2022-10-18T20:09:08.582Z,20.93
2022-10-18T20:11:35.386Z,20.67
2022-10-18T20:14:01.944Z,20.73
2022-10-18T20:16:30.642Z,20.64
2022-10-18T20:19:06.556Z,20.69
2022-10-18T20:21:35.646Z,20.68
2022-10-18T20:24:05.728Z,20.71
2022-10-18T20:26:33.030Z,20.61
2022-10-18T20:28:59.940Z,20.58
2022-10-18T20:31:31.749Z,20.45
2022-10-18T20:34:00.901Z,20.47
2022-10-18T20:36:28.955Z,20.49
2022-10-18T20:38:55.965Z,20.39
2022-10-18T20:41:28.550Z,20.48
2022-10-18T20:44:03.479Z,20.40
2022-10-18T20:46:32.053Z,20.42
2022-10-18T20:48:58.376Z,20.36
2022-10-18T20:51:24.732Z,20.34
2022-10-18T20:53:51.491Z,20.33
2022-10-18T20:56:20.321Z,20.03
2022-10-18T20:58:48.666Z,20.13
2022-10-18T21:01:18.087Z,20.08
2022-10-18T21:03:46.394Z,20.10
2022-10-18T21:06:33.097Z,20.02
2022-10-18T21:09:01.992Z,20.02
2022-10-18T21:11:32.125Z,20.06
2022-10-18T21:14:02.456Z,20.09
2022-10-18T21:16:30.454Z,20.03
2022-10-18T21:19:11.596Z,20.03
2022-10-18T21:21:38.027Z,20.06
2022-10-18T21:24:07.147Z,19.98
2022-10-18T21:26:35.566Z,19.97
2022-10-18T21:29:07.939Z,19.95
2022-10-18T21:31:36.955Z,19.88
2022-10-18T21:34:12.678Z,19.85
2022-10-18T21:36:40.431Z,19.80
2022-10-18T21:39:10.416Z,19.79
2022-10-18T21:41:37.671Z,19.59
2022-10-18T21:44:08.242Z,19.71
2022-10-18T21:46:36.363Z,19.67
2022-10-18T21:49:03.064Z,19.74
2022-10-18T21:51:29.448Z,19.68
2022-10-18T21:53:57.565Z,19.66
2022-10-18T21:56:34.691Z,19.67
2022-10-18T21:59:02.458Z,19.65
2022-10-18T22:01:32.412Z,19.56
2022-10-18T22:04:00.863Z,19.33
2022-10-18T22:06:29.926Z,19.38
2022-10-18T22:09:00.350Z,19.42
2022-10-18T22:11:29.928Z,19.46
2022-10-18T22:13:57.127Z,19.44
2022-10-18T22:16:24.038Z,19.43
2022-10-18T22:18:51.098Z,19.44
2022-10-18T22:21:19.535Z,19.40
2022-10-18T22:23:49.054Z,19.33
2022-10-18T22:26:27.864Z,19.37
2022-10-18T22:29:00.014Z,19.25
2022-10-18T22:31:29.989Z,19.23
2022-10-18T22:34:05.059Z,19.21
2022-10-18T22:36:32.411Z,19.22
2022-10-18T22:38:58.852Z,19.19
2022-10-18T22:41:25.469Z,19.13
2022-10-18T22:43:53.112Z,19.11
2022-10-18T22:46:20.207Z,18.96
2022-10-18T22:48:47.024Z,19.03
2022-10-18T22:51:13.486Z,19.03
2022-10-18T22:53:40.856Z,18.97
2022-10-18T22:56:09.877Z,18.87
2022-10-18T22:58:36.547Z,18.89
2022-10-18T23:01:09.383Z,18.88
2022-10-18T23:03:36.706Z,18.83
2022-10-18T23:06:04.536Z,18.82
2022-10-18T23:08:31.361Z,18.78
2022-10-18T23:10:59.431Z,18.76
2022-10-18T23:13:27.378Z,18.77
2022-10-18T23:16:04.204Z,18.63
2022-10-18T23:18:31.657Z,18.66
2022-10-18T23:21:06.583Z,18.60
2022-10-18T23:23:35.440Z,18.65
2022-10-18T23:26:04.029Z,18.70
2022-10-18T23:28:33.429Z,18.79
2022-10-18T23:31:04.271Z,18.81
2022-10-18T23:33:30.821Z,18.84
2022-10-18T23:35:58.854Z,18.84
2022-10-18T23:38:25.199Z,18.83
2022-10-18T23:40:51.529Z,18.70
2022-10-18T23:43:18.008Z,18.73
2022-10-18T23:45:44.323Z,18.67
2022-10-18T23:48:10.641Z,18.68
2022-10-18T23:50:36.965Z,18.66
2022-10-18T23:53:03.528Z,18.59
2022-10-18T23:55:30.338Z,18.60
2022-10-18T23:57:56.785Z,18.69
